Thunderstorms From: 25-05-2018 05:05 Until: 26-05-2018 05:00 warning for: Thunderstorms Level: Yellow info button

Although rather usual in this region, locally or potentially dangerous phenomena are expected. (such as local winds, summer thunderstorms, rising streams or high waves) Be aware and pay attention to the latest weather updates, especially if you carry out activities exposed to weather or close to a stream or shoreline. 


Meteo18 Weather Cam more information Meteo18 Weather Cam


warning for Thunderstorms more information blitzortung!


Rain radar more information rain snow radar


Visit our other weather sites:

Template documentation
and downloads

And another site



Weather Underground History page Text

Daily Summary for October 6, 2017 Units:  English    Metric   Both
« Previous Day
Next Day »
Daily Weekly Monthly Yearly Custom
  High: Low: Average:
Temperature: TemperatureC °F 7.4 °F 10.4 °F
Dew Point: DewpointC °F 5.8 °F 8.2 °F
Humidity: Humidity % 65 % 86 %
Wind Speed: WindSpeedKMH mph 0.0 mph 3.2 mph
Wind Gust: WindSpeedGustKMH mph - -
Wind:- - WSW
Pressure: PressurehPa in 1022.2 in -
Precipitation: 0.3 in    
Historical Graphs
 
 
Tabular Data for October 6, 2017
Time Temperature Dew Point Pressure Wind Wind Speed Wind Gust Humidity Rainfall Rate (Hourly)
TemperatureC °F DewpointC °F PressurehPa in Calm     Humidity % HourlyPrecipMM in
00:07 13.4 °F 12.3 °F 1022.2 in NW 3.2 mph 11.3 mph 93 % 0.0 in
00:12 13.3 °F 12.2 °F 1022.2 in NNW 9.7 mph 11.3 mph 93 % 0.0 in
00:17 13.3 °F 12.2 °F 1022.2 in NNW 4.8 mph 19.3 mph 93 % 0.0 in
00:22 13.3 °F 12.2 °F 1022.2 in NNW 11.3 mph 19.3 mph 93 % 0.0 in
00:32 13.3 °F 12.0 °F 1022.2 in NNW 3.2 mph 16.1 mph 92 % 0.0 in
00:37 13.2 °F 11.9 °F 1022.2 in NNW 6.4 mph 14.5 mph 92 % 0.0 in
00:42 13.2 °F 11.9 °F 1022.2 in NNW 8.0 mph 17.7 mph 92 % 0.0 in
00:47 13.2 °F 11.9 °F 1022.2 in NNE 8.0 mph 17.7 mph 92 % 0.0 in
00:52 13.1 °F 11.8 °F 1022.2 in North 6.4 mph 14.5 mph 92 % 0.0 in
00:57 13.1 °F 11.8 °F 1022.2 in North 8.0 mph 14.5 mph 92 % 0.0 in
01:02 13.1 °F 11.8 °F 1022.2 in NNW 4.8 mph 14.5 mph 92 % 0.0 in
01:07 13.0 °F 11.7 °F 1022.2 in NW 4.8 mph 14.5 mph 92 % 0.0 in
01:12 12.9 °F 11.6 °F 1022.2 in NNW 8.0 mph 14.5 mph 92 % 0.0 in
01:17 12.9 °F 11.6 °F 1022.2 in NNE 4.8 mph 12.9 mph 92 % 0.0 in
01:22 12.8 °F 11.5 °F 1022.2 in NNW 1.6 mph 12.9 mph 92 % 0.0 in
01:27 12.7 °F 11.4 °F 1022.2 in North 3.2 mph 14.5 mph 92 % 0.0 in
01:37 12.6 °F 11.3 °F 1022.6 in NNW 8.0 mph 14.5 mph 92 % 0.0 in
01:42 12.5 °F 11.4 °F 1022.6 in WNW 1.6 mph 9.7 mph 93 % 0.0 in
01:47 12.5 °F 11.4 °F 1022.6 in WNW 1.6 mph 12.9 mph 93 % 0.0 in
01:52 12.4 °F 11.3 °F 1022.6 in NNW 3.2 mph 12.9 mph 93 % 0.0 in
01:57 12.4 °F 11.3 °F 1022.9 in North 9.7 mph 11.3 mph 93 % 0.0 in
02:12 12.2 °F 10.8 °F 1022.6 in North 14.5 mph 19.3 mph 91 % 0.0 in
02:22 12.0 °F 10.6 °F 1022.6 in NNW 11.3 mph 19.3 mph 91 % 0.0 in
02:27 11.9 °F 10.5 °F 1022.9 in NE 6.4 mph 19.3 mph 91 % 0.0 in
02:32 11.8 °F 10.5 °F 1022.9 in NNW 6.4 mph 20.9 mph 92 % 0.0 in
02:42 11.6 °F 10.3 °F 1022.9 in North 6.4 mph 20.9 mph 92 % 0.0 in
02:52 11.4 °F 10.1 °F 1022.9 in NE 3.2 mph 14.5 mph 92 % 0.0 in
02:57 11.3 °F 10.2 °F 1022.9 in NNE 4.8 mph 14.5 mph 93 % 0.0 in
03:02 11.3 °F 10.2 °F 1022.9 in NE 1.6 mph 11.3 mph 93 % 0.0 in
03:07 11.2 °F 10.1 °F 1022.9 in NE 6.4 mph 11.3 mph 93 % 0.0 in
03:12 11.3 °F 10.2 °F 1022.9 in NE 8.0 mph 16.1 mph 93 % 0.0 in
03:17 11.3 °F 10.2 °F 1022.9 in NE 9.7 mph 16.1 mph 93 % 0.0 in
03:27 11.3 °F 10.2 °F 1023.2 in NE 1.6 mph 12.9 mph 93 % 0.0 in
03:32 11.3 °F 10.2 °F 1023.2 in NE 4.8 mph 12.9 mph 93 % 0.0 in
03:37 11.2 °F 10.1 °F 1023.2 in NNW 1.6 mph 9.7 mph 93 % 0.0 in
03:42 11.0 °F 9.9 °F 1022.9 in NW 1.6 mph 8.0 mph 93 % 0.0 in
03:52 10.8 °F 9.7 °F 1023.2 in NNE 8.0 mph 11.3 mph 93 % 0.0 in
03:57 10.8 °F 9.7 °F 1023.2 in NE 6.4 mph 14.5 mph 93 % 0.0 in
04:07 10.6 °F 9.5 °F 1023.2 in NNW 3.2 mph 14.5 mph 93 % 0.0 in
04:12 10.6 °F 9.5 °F 1023.2 in NNE 3.2 mph 9.7 mph 93 % 0.0 in
04:17 10.4 °F 9.3 °F 1023.2 in Calm   8.0 mph 93 % 0.0 in
04:22 10.2 °F 9.1 °F 1023.2 in Calm   6.4 mph 93 % 0.0 in
04:27 10.1 °F 9.0 °F 1023.2 in Calm   3.2 mph 93 % 0.0 in
04:32 9.9 °F 9.0 °F 1023.2 in Calm   1.6 mph 94 % 0.0 in
04:42 9.7 °F 8.8 °F 1023.2 in Calm     94 % 0.0 in
04:47 9.6 °F 8.7 °F 1023.2 in Calm   1.6 mph 94 % 0.0 in
04:52 9.4 °F 8.5 °F 1023.2 in Calm   1.6 mph 94 % 0.0 in
04:57 9.2 °F 8.3 °F 1023.2 in Calm   1.6 mph 94 % 0.0 in
05:02 9.1 °F 8.2 °F 1023.2 in Calm   1.6 mph 94 % 0.0 in
05:07 9.0 °F 8.2 °F 1023.2 in Calm     95 % 0.0 in
05:12 8.9 °F 8.1 °F 1023.2 in Calm   3.2 mph 95 % 0.0 in
05:17 8.8 °F 8.0 °F 1023.2 in Calm   3.2 mph 95 % 0.0 in
05:27 8.6 °F 7.8 °F 1023.2 in WNW 3.2 mph 3.2 mph 95 % 0.0 in
05:37 8.4 °F 7.6 °F 1023.2 in Calm   3.2 mph 95 % 0.0 in
05:52 8.4 °F 7.8 °F 1023.2 in Calm   4.8 mph 96 % 0.0 in
05:57 8.4 °F 7.8 °F 1023.6 in Calm   6.4 mph 96 % 0.0 in
06:02 8.4 °F 7.8 °F 1023.2 in NNW 1.6 mph 6.4 mph 96 % 0.0 in
06:12 8.3 °F 7.7 °F 1023.2 in Calm   3.2 mph 96 % 0.0 in
06:17 8.3 °F 7.7 °F 1023.6 in NW 1.6 mph 3.2 mph 96 % 0.0 in
06:22 8.4 °F 7.8 °F 1023.6 in Calm   3.2 mph 96 % 0.3 in
06:32 8.3 °F 7.7 °F 1023.6 in Calm   3.2 mph 96 % 0.3 in
06:37 8.3 °F 7.7 °F 1023.6 in NNW 3.2 mph 4.8 mph 96 % 0.3 in
06:42 8.4 °F 7.8 °F 1023.6 in Calm   4.8 mph 96 % 0.3 in
06:47 8.3 °F 7.7 °F 1023.6 in Calm   3.2 mph 96 % 0.3 in
06:52 8.2 °F 7.6 °F 1023.6 in NNW 1.6 mph 3.2 mph 96 % 0.3 in
07:02 8.1 °F 7.5 °F 1023.6 in WNW 6.4 mph 6.4 mph 96 % 0.3 in
07:12 8.2 °F 7.6 °F 1023.9 in NW 1.6 mph 8.0 mph 96 % 0.3 in
07:17 8.2 °F 7.6 °F 1023.9 in Calm   9.7 mph 96 % 0.3 in
07:22 8.2 °F 7.6 °F 1023.9 in NNW 1.6 mph 9.7 mph 96 % 0.0 in
07:32 8.2 °F 7.6 °F 1023.9 in North 3.2 mph 8.0 mph 96 % 0.0 in
07:37 8.2 °F 7.6 °F 1023.9 in NNW 1.6 mph 8.0 mph 96 % 0.0 in
07:42 8.1 °F 7.5 °F 1023.9 in Calm   9.7 mph 96 % 0.0 in
07:52 7.9 °F 7.3 °F 1023.9 in North 1.6 mph 4.8 mph 96 % 0.0 in
07:57 7.8 °F 7.2 °F 1024.3 in NE 1.6 mph 4.8 mph 96 % 0.0 in
08:02 7.7 °F 7.1 °F 1024.3 in NNE 3.2 mph 6.4 mph 96 % 0.0 in
08:07 7.6 °F 7.0 °F 1024.3 in NNW 1.6 mph 6.4 mph 96 % 0.0 in
08:12 7.6 °F 7.0 °F 1024.3 in NW 1.6 mph 6.4 mph 96 % 0.0 in
08:17 7.6 °F 7.0 °F 1024.3 in NNE 3.2 mph 6.4 mph 96 % 0.0 in
08:22 7.6 °F 7.0 °F 1024.6 in NNW 4.8 mph 6.4 mph 96 % 0.0 in
08:32 7.8 °F 7.2 °F 1024.6 in WNW 1.6 mph 4.8 mph 96 % 0.0 in
08:37 8.0 °F 7.6 °F 1024.6 in NW 4.8 mph 6.4 mph 97 % 0.0 in
08:42 8.1 °F 7.5 °F 1024.6 in NW 4.8 mph 12.9 mph 96 % 0.0 in
08:47 8.2 °F 7.6 °F 1024.6 in NW 4.8 mph 14.5 mph 96 % 0.0 in
08:52 8.1 °F 7.5 °F 1024.6 in NNW 4.8 mph 14.5 mph 96 % 0.0 in
08:57 8.2 °F 7.6 °F 1024.6 in NW 1.6 mph 14.5 mph 96 % 0.0 in
09:02 8.3 °F 7.7 °F 1024.6 in NNW 3.2 mph 12.9 mph 96 % 0.0 in
09:07 8.5 °F 7.7 °F 1024.9 in WNW 3.2 mph 9.7 mph 95 % 0.0 in
09:12 8.6 °F 7.8 °F 1024.9 in NW 3.2 mph 9.7 mph 95 % 0.0 in
09:22 8.7 °F 7.8 °F 1024.9 in NNW 1.6 mph 9.7 mph 94 % 0.0 in
09:32 9.1 °F 8.2 °F 1024.9 in NNW 1.6 mph 9.7 mph 94 % 0.0 in
09:37 9.2 °F 8.1 °F 1024.9 in North 3.2 mph 8.0 mph 93 % 0.0 in
09:47 9.6 °F 8.5 °F 1024.9 in NW 1.6 mph 6.4 mph 93 % 0.0 in
09:52 9.8 °F 8.6 °F 1024.9 in NNW 1.6 mph 6.4 mph 92 % 0.0 in
09:57 10.0 °F 8.6 °F 1024.9 in NNW 6.4 mph 8.0 mph 91 % 0.0 in
10:02 10.2 °F 8.6 °F 1025.3 in NNW 1.6 mph 9.7 mph 90 % 0.0 in
10:07 10.4 °F 8.5 °F 1025.3 in NNW 1.6 mph 9.7 mph 88 % 0.0 in
10:12 10.6 °F 8.5 °F 1025.3 in WNW 3.2 mph 9.7 mph 87 % 0.0 in
10:17 10.8 °F 8.7 °F 1025.3 in Calm   9.7 mph 87 % 0.0 in
10:22 11.2 °F 8.9 °F 1025.3 in Calm   9.7 mph 86 % 0.0 in
10:27 11.5 °F 9.1 °F 1025.3 in WNW 1.6 mph 9.7 mph 85 % 0.0 in
10:32 11.7 °F 8.9 °F 1025.3 in West 3.2 mph 4.8 mph 83 % 0.0 in
10:37 11.8 °F 8.8 °F 1025.3 in Calm   4.8 mph 82 % 0.0 in
10:42 12.1 °F 8.8 °F 1025.3 in NNW 3.2 mph 8.0 mph 80 % 0.0 in
10:47 12.3 °F 8.6 °F 1025.3 in NNW 4.8 mph 8.0 mph 78 % 0.0 in
10:52 12.3 °F 8.4 °F 1025.3 in West 4.8 mph 14.5 mph 77 % 0.0 in
10:57 12.4 °F 8.3 °F 1025.6 in NNW 8.0 mph 14.5 mph 76 % 0.0 in
11:02 12.4 °F 8.5 °F 1025.6 in WNW 1.6 mph 14.5 mph 77 % 0.0 in
11:07 12.4 °F 8.3 °F 1025.6 in West 1.6 mph 14.5 mph 76 % 0.0 in
11:12 12.6 °F 8.5 °F 1026.0 in NNW 6.4 mph 14.5 mph 76 % 0.0 in
11:17 12.6 °F 8.7 °F 1025.6 in NW 6.4 mph 14.5 mph 77 % 0.0 in
11:22 12.7 °F 8.6 °F 1026.0 in NNW 8.0 mph 14.5 mph 76 % 0.0 in
11:32 12.9 °F 8.8 °F 1026.0 in North 8.0 mph 16.1 mph 76 % 0.0 in
11:37 13.0 °F 8.9 °F 1026.0 in WNW 6.4 mph 16.1 mph 76 % 0.0 in
11:42 13.1 °F 8.2 °F 1026.0 in NNW 6.4 mph 16.1 mph 72 % 0.0 in
11:47 13.1 °F 8.4 °F 1026.0 in NNW 4.8 mph 16.1 mph 73 % 0.0 in
12:02 13.4 °F 8.7 °F 1026.0 in North 8.0 mph 14.5 mph 73 % 0.0 in
12:07 13.5 °F 7.9 °F 1026.0 in NNW 9.7 mph 12.9 mph 69 % 0.0 in
12:12 13.4 °F 7.6 °F 1026.0 in NNW 9.7 mph 14.5 mph 68 % 0.0 in
12:17 13.3 °F 7.3 °F 1026.0 in NNW 6.4 mph 14.5 mph 67 % 0.0 in
12:22 13.1 °F 6.9 °F 1026.0 in WNW 9.7 mph 24.1 mph 66 % 0.0 in
12:27 13.0 °F 7.7 °F 1026.0 in NW 12.9 mph 24.1 mph 70 % 0.0 in
12:32 13.0 °F 8.1 °F 1026.0 in North 4.8 mph 24.1 mph 72 % 0.0 in
12:42 13.4 °F 7.8 °F 1026.0 in NNW 1.6 mph 22.5 mph 69 % 0.0 in
12:47 13.7 °F 8.1 °F 1026.3 in NNE 8.0 mph 22.5 mph 69 % 0.0 in
12:52 13.6 °F 8.4 °F 1026.3 in NW 11.3 mph 22.5 mph 71 % 0.0 in
12:57 13.4 °F 8.0 °F 1026.3 in NNW 14.5 mph 20.9 mph 70 % 0.0 in
13:02 13.3 °F 7.3 °F 1026.3 in WNW 8.0 mph 20.9 mph 67 % 0.0 in
13:07 13.6 °F 7.8 °F 1026.3 in WNW 6.4 mph 24.1 mph 68 % 0.0 in
13:12 13.7 °F 7.7 °F 1026.3 in NW 9.7 mph 24.1 mph 67 % 0.0 in
13:17 13.4 °F 7.2 °F 1026.3 in NNW 14.5 mph 24.1 mph 66 % 0.0 in
13:22 13.2 °F 7.4 °F 1026.3 in North 4.8 mph 24.1 mph 68 % 0.0 in
13:32 13.3 °F 7.5 °F 1026.3 in WNW 9.7 mph 24.1 mph 68 % 0.0 in
13:37 13.4 °F 7.8 °F 1026.3 in NNW 11.3 mph 19.3 mph 69 % 0.0 in
13:42 13.6 °F 7.8 °F 1026.3 in NW 9.7 mph 19.3 mph 68 % 0.0 in
18:17 13.6 °F 7.1 °F 1026.3 in NNW 3.2 mph 14.5 mph 65 % 0.0 in
18:27 13.3 °F 7.3 °F 1026.6 in NNW 4.8 mph 12.9 mph 67 % 0.0 in
18:32 13.2 °F 7.2 °F 1026.6 in NNW 1.6 mph 12.9 mph 67 % 0.0 in
18:42 12.8 °F 7.5 °F 1026.6 in NNE 4.8 mph 11.3 mph 70 % 0.0 in
18:47 12.7 °F 7.6 °F 1026.6 in North 1.6 mph 8.0 mph 71 % 0.0 in
18:52 12.5 °F 7.6 °F 1026.6 in NNE 3.2 mph 6.4 mph 72 % 0.0 in
18:57 12.5 °F 7.6 °F 1026.6 in NE 3.2 mph 6.4 mph 72 % 0.0 in
19:02 12.4 °F 7.5 °F 1027.0 in NNE 3.2 mph 6.4 mph 72 % 0.0 in
19:07 12.2 °F 7.5 °F 1027.0 in NE 1.6 mph 6.4 mph 73 % 0.0 in
19:12 12.1 °F 7.4 °F 1027.0 in NNE 1.6 mph 6.4 mph 73 % 0.0 in
19:17 12.0 °F 7.5 °F 1027.0 in NNE 1.6 mph 9.7 mph 74 % 0.0 in
19:22 11.7 °F 7.2 °F 1027.0 in Calm   9.7 mph 74 % 0.0 in
19:27 11.5 °F 7.4 °F 1027.0 in Calm   9.7 mph 76 % 0.0 in
19:32 11.3 °F 7.2 °F 1027.3 in Calm   4.8 mph 76 % 0.0 in
19:37 11.0 °F 7.1 °F 1027.3 in Calm   3.2 mph 77 % 0.0 in
19:42 10.8 °F 7.3 °F 1027.3 in Calm   1.6 mph 79 % 0.0 in
19:47 10.5 °F 7.2 °F 1027.3 in Calm   1.6 mph 80 % 0.0 in
19:52 10.3 °F 7.0 °F 1027.7 in Calm   1.6 mph 80 % 0.0 in
19:57 10.2 °F 7.1 °F 1027.7 in Calm     81 % 0.0 in
20:02 10.1 °F 7.0 °F 1027.7 in Calm   1.6 mph 81 % 0.0 in
20:07 10.0 °F 7.1 °F 1027.7 in Calm   1.6 mph 82 % 0.0 in
20:12 9.8 °F 6.9 °F 1027.7 in Calm   1.6 mph 82 % 0.0 in
20:17 9.6 °F 6.7 °F 1027.7 in Calm   1.6 mph 82 % 0.0 in
20:22 9.5 °F 6.8 °F 1027.7 in Calm   1.6 mph 83 % 0.0 in
20:32 9.2 °F 6.6 °F 1027.7 in Calm   1.6 mph 84 % 0.0 in
20:37 9.2 °F 6.6 °F 1027.7 in Calm   1.6 mph 84 % 0.0 in
20:47 8.8 °F 6.4 °F 1027.7 in WNW 1.6 mph 3.2 mph 85 % 0.0 in
20:52 8.6 °F 6.4 °F 1027.7 in WNW 1.6 mph 3.2 mph 86 % 0.0 in
20:57 8.4 °F 6.4 °F 1027.7 in Calm   3.2 mph 87 % 0.0 in
21:02 8.2 °F 6.3 °F 1027.7 in Calm   3.2 mph 88 % 0.0 in
21:07 8.0 °F 6.3 °F 1027.7 in WNW 1.6 mph 3.2 mph 89 % 0.0 in
21:12 7.9 °F 6.4 °F 1027.7 in WNW 1.6 mph 3.2 mph 90 % 0.0 in
21:17 7.9 °F 6.4 °F 1028.0 in WNW 1.6 mph 3.2 mph 90 % 0.0 in
21:22 7.9 °F 6.4 °F 1027.7 in WNW 1.6 mph 3.2 mph 90 % 0.0 in
21:32 7.9 °F 6.2 °F 1027.7 in Calm   1.6 mph 89 % 0.0 in
21:37 7.8 °F 6.3 °F 1027.7 in Calm   1.6 mph 90 % 0.0 in
21:42 7.7 °F 6.2 °F 1027.7 in Calm   1.6 mph 90 % 0.0 in
21:47 7.8 °F 6.4 °F 1028.0 in NNW 1.6 mph 1.6 mph 91 % 0.0 in
21:52 8.2 °F 6.7 °F 1027.7 in Calm   1.6 mph 90 % 0.0 in
21:57 8.3 °F 6.6 °F 1028.0 in Calm   1.6 mph 89 % 0.0 in
22:02 8.3 °F 6.4 °F 1028.0 in Calm   1.6 mph 88 % 0.0 in
22:07 8.4 °F 6.5 °F 1028.0 in Calm   1.6 mph 88 % 0.0 in
22:12 8.2 °F 6.2 °F 1028.0 in Calm   1.6 mph 87 % 0.0 in
22:17 8.1 °F 6.2 °F 1028.0 in Calm   1.6 mph 88 % 0.0 in
22:22 8.2 °F 6.5 °F 1028.0 in Calm   1.6 mph 89 % 0.0 in
22:27 8.4 °F 6.5 °F 1028.0 in NNW 1.6 mph 1.6 mph 88 % 0.0 in
22:32 8.4 °F 6.5 °F 1028.0 in Calm   1.6 mph 88 % 0.0 in
22:37 8.3 °F 6.4 °F 1028.0 in Calm   1.6 mph 88 % 0.0 in
22:42 8.3 °F 6.4 °F 1028.0 in Calm   1.6 mph 88 % 0.0 in
22:47 8.0 °F 6.0 °F 1028.3 in Calm   1.6 mph 87 % 0.0 in
22:52 7.7 °F 5.8 °F 1028.3 in Calm   1.6 mph 88 % 0.0 in
23:02 7.9 °F 6.4 °F 1028.0 in North 1.6 mph 1.6 mph 90 % 0.0 in
23:07 7.9 °F 6.2 °F 1028.3 in North 1.6 mph 3.2 mph 89 % 0.0 in
23:12 7.8 °F 6.1 °F 1028.3 in Calm   3.2 mph 89 % 0.0 in
23:17 7.8 °F 6.1 °F 1028.3 in Calm   3.2 mph 89 % 0.0 in
23:22 7.7 °F 6.2 °F 1028.3 in NNW 1.6 mph 1.6 mph 90 % 0.0 in
23:32 7.6 °F 6.1 °F 1028.3 in Calm   3.2 mph 90 % 0.0 in
23:37 7.6 °F 6.1 °F 1028.3 in North 1.6 mph 3.2 mph 90 % 0.0 in
23:42 7.6 °F 6.1 °F 1028.3 in Calm   3.2 mph 90 % 0.0 in
23:47 7.6 °F 6.1 °F 1028.7 in Calm   1.6 mph 90 % 0.0 in
23:52 7.4 °F 5.9 °F 1028.3 in Calm   1.6 mph 90 % 0.0 in
Meteo18
Compliments of Weather Underground - 4 mb

Script developed by  Jim McMurry - jmcmurry@mwt.net Adapted for the template by  Wim van der Kuil - Leuven-Template.eu

You find our weather info also at:

European Weather Network

Weather Underground

Equipment we use:

Weather-station
Davis Vue

Weather-program
Meteobridge

Weather-server
Raspberry PI 2 B+

Provider
1 and 1

Davis Vue

Meteobridge

Raspberry PI 2 B+

1 and 1